createdAt,value
2022-11-13T00:01:11.178Z,99435.50
2022-11-13T00:03:37.493Z,99440.19
2022-11-13T00:06:04.028Z,99427.41
2022-11-13T00:08:30.667Z,99429.94
2022-11-13T00:11:01.854Z,99425.75
2022-11-13T00:13:30.553Z,99430.53
2022-11-13T00:15:57.972Z,99420.53
2022-11-13T00:18:24.356Z,99424.31
2022-11-13T00:20:50.765Z,99415.22
2022-11-13T00:23:17.089Z,99425.91
2022-11-13T00:25:43.431Z,99424.47
2022-11-13T00:28:09.745Z,99422.53
2022-11-13T00:30:36.080Z,99414.25
2022-11-13T00:33:02.391Z,99415.84
2022-11-13T00:35:28.730Z,99409.06
2022-11-13T00:37:55.045Z,99410.59
2022-11-13T00:40:21.428Z,99401.97
2022-11-13T00:42:47.764Z,99403.19
2022-11-13T00:45:14.284Z,99398.78
2022-11-13T00:47:40.590Z,99396.16
2022-11-13T00:50:06.993Z,99394.09
2022-11-13T00:52:33.318Z,99398.31
2022-11-13T00:54:59.634Z,99394.72
2022-11-13T00:57:26.011Z,99394.72
2022-11-13T00:59:52.352Z,99394.13
2022-11-13T01:02:18.657Z,99405.66
2022-11-13T01:04:45.073Z,99410.94
2022-11-13T01:07:11.428Z,99402.44
2022-11-13T01:09:37.812Z,99409.06
2022-11-13T01:12:04.262Z,99405.66
2022-11-13T01:14:30.575Z,99402.44
2022-11-13T01:16:56.888Z,99407.38
2022-11-13T01:19:23.265Z,99401.09
2022-11-13T01:21:49.575Z,99394.84
2022-11-13T01:24:15.934Z,99397.09
2022-11-13T01:26:42.336Z,99395.00
2022-11-13T01:29:09.773Z,99383.59
2022-11-13T01:31:36.090Z,99385.59
2022-11-13T01:34:02.405Z,99389.19
2022-11-13T01:36:28.866Z,99373.16
2022-11-13T01:38:55.262Z,99371.88
2022-11-13T01:41:25.852Z,99368.44
2022-11-13T01:43:52.498Z,99355.53
2022-11-13T01:46:35.218Z,99354.03
2022-11-13T01:49:03.623Z,99359.13
2022-11-13T01:51:34.165Z,99361.16
2022-11-13T01:54:01.182Z,99363.25
2022-11-13T01:56:27.762Z,99344.19
2022-11-13T01:58:55.052Z,99325.53
2022-11-13T02:01:21.421Z,99322.03
2022-11-13T02:03:47.733Z,99315.91
2022-11-13T02:06:14.079Z,99336.66
2022-11-13T02:08:40.391Z,99333.50
2022-11-13T02:11:06.706Z,99338.38
2022-11-13T02:13:33.042Z,99337.25
2022-11-13T02:15:59.374Z,99336.03
2022-11-13T02:18:26.196Z,99328.50
2022-11-13T02:20:52.797Z,99316.72
2022-11-13T02:23:29.198Z,99321.94
2022-11-13T02:25:55.540Z,99314.28
2022-11-13T02:28:22.251Z,99304.34
2022-11-13T02:30:48.563Z,99307.53
2022-11-13T02:33:22.019Z,99319.28
2022-11-13T02:35:48.523Z,99325.31
2022-11-13T02:38:14.829Z,99312.31
2022-11-13T02:40:41.160Z,99328.56
2022-11-13T02:43:07.565Z,99318.56
2022-11-13T02:45:33.914Z,99308.56
2022-11-13T02:48:00.912Z,99304.56
2022-11-13T02:50:27.304Z,99303.59
2022-11-13T02:52:53.713Z,99299.91
2022-11-13T02:55:20.160Z,99301.19
2022-11-13T02:57:46.492Z,99306.59
2022-11-13T03:00:14.238Z,99289.91
2022-11-13T03:02:40.814Z,99305.53
2022-11-13T03:05:12.538Z,99293.91
2022-11-13T03:07:39.856Z,99303.09
2022-11-13T03:10:06.433Z,99317.31
2022-11-13T03:12:32.893Z,99313.84
2022-11-13T03:14:59.225Z,99315.94
2022-11-13T03:17:25.540Z,99312.94
2022-11-13T03:19:51.924Z,99309.38
2022-11-13T03:22:18.238Z,99322.78
2022-11-13T03:24:44.548Z,99321.31
2022-11-13T03:27:10.868Z,99303.78
2022-11-13T03:29:37.222Z,99315.06
2022-11-13T03:32:03.555Z,99303.34
2022-11-13T03:34:30.192Z,99302.91
2022-11-13T03:36:56.499Z,99312.00
2022-11-13T03:39:22.830Z,99299.47
2022-11-13T03:41:49.143Z,99284.38
2022-11-13T03:44:15.509Z,99286.22
2022-11-13T03:46:41.824Z,99292.28
2022-11-13T03:49:08.168Z,99292.06
2022-11-13T03:51:34.507Z,99290.22
2022-11-13T03:54:00.903Z,99286.31
2022-11-13T03:56:27.664Z,99283.59
2022-11-13T03:58:53.986Z,99292.19
2022-11-13T04:01:20.387Z,99288.38
2022-11-13T04:03:46.778Z,99287.13
2022-11-13T04:06:14.471Z,99296.63
2022-11-13T04:08:40.826Z,99291.59
2022-11-13T04:11:10.239Z,99284.34
2022-11-13T04:13:36.541Z,99275.91
2022-11-13T04:16:03.111Z,99266.91
2022-11-13T04:18:32.089Z,99267.66
2022-11-13T04:21:01.665Z,99265.31
2022-11-13T04:23:27.979Z,99246.06
2022-11-13T04:25:54.405Z,99239.47
2022-11-13T04:28:20.762Z,99238.56
2022-11-13T04:30:47.090Z,99219.28
2022-11-13T04:33:13.440Z,99228.63
2022-11-13T04:35:41.654Z,99247.22
2022-11-13T04:38:07.956Z,99242.59
2022-11-13T04:40:34.285Z,99245.25
2022-11-13T04:43:00.613Z,99258.97
2022-11-13T04:45:27.578Z,99264.78
2022-11-13T04:47:53.926Z,99258.53
2022-11-13T04:50:20.401Z,99264.44
2022-11-13T04:52:46.706Z,99263.63
2022-11-13T04:55:13.034Z,99262.38
2022-11-13T04:57:39.398Z,99248.72
2022-11-13T05:00:06.122Z,99211.00
2022-11-13T05:02:32.483Z,99231.53
2022-11-13T05:05:04.387Z,99208.78
2022-11-13T05:07:31.405Z,99228.19
2022-11-13T05:09:57.744Z,99222.34
2022-11-13T05:12:24.058Z,99214.59
2022-11-13T05:14:50.446Z,99216.94
2022-11-13T05:17:16.825Z,99207.44
2022-11-13T05:19:43.154Z,99210.50
2022-11-13T05:22:09.468Z,99192.81
2022-11-13T05:24:35.782Z,99213.78
2022-11-13T05:27:02.109Z,99205.81
2022-11-13T05:29:28.431Z,99208.06
2022-11-13T05:31:54.986Z,99213.84
2022-11-13T05:34:21.389Z,99206.69
2022-11-13T05:36:47.699Z,99215.25
2022-11-13T05:39:14.034Z,99217.16
2022-11-13T05:41:40.513Z,99215.69
2022-11-13T05:44:06.850Z,99206.22
2022-11-13T05:46:33.161Z,99205.84
2022-11-13T05:49:00.200Z,99213.31
2022-11-13T05:51:27.503Z,99221.19
2022-11-13T05:53:53.825Z,99207.06
2022-11-13T05:56:21.539Z,99210.78
2022-11-13T05:58:47.911Z,99196.03
2022-11-13T06:01:14.217Z,99191.44
2022-11-13T06:03:40.634Z,99188.78
2022-11-13T06:06:07.408Z,99200.84
2022-11-13T06:08:33.726Z,99196.03
2022-11-13T06:11:00.688Z,99170.31
2022-11-13T06:13:27.001Z,99182.88
2022-11-13T06:15:53.567Z,99190.28
2022-11-13T06:18:26.528Z,99169.97
2022-11-13T06:20:53.255Z,99160.94
2022-11-13T06:23:19.577Z,99178.50
2022-11-13T06:25:45.968Z,99153.84
2022-11-13T06:28:12.285Z,99134.56
2022-11-13T06:30:38.639Z,99171.72
2022-11-13T06:33:05.105Z,99174.97
2022-11-13T06:35:32.039Z,99147.84
2022-11-13T06:37:58.367Z,99140.47
2022-11-13T06:40:24.702Z,99166.00
2022-11-13T06:42:51.032Z,99164.56
2022-11-13T06:45:17.368Z,99167.56
2022-11-13T06:47:43.749Z,99180.38
2022-11-13T06:50:10.099Z,99180.44
2022-11-13T06:52:36.417Z,99177.25
2022-11-13T06:55:02.783Z,99165.13
2022-11-13T06:57:29.111Z,99178.81
2022-11-13T06:59:55.477Z,99173.28
2022-11-13T07:02:21.799Z,99152.84
2022-11-13T07:04:48.109Z,99153.03
2022-11-13T07:07:14.471Z,99143.94
2022-11-13T07:09:40.805Z,99164.28
2022-11-13T07:12:07.158Z,99169.25
2022-11-13T07:14:33.472Z,99177.22
2022-11-13T07:17:10.924Z,99175.44
2022-11-13T07:19:37.282Z,99153.28
2022-11-13T07:22:03.610Z,99153.06
2022-11-13T07:24:29.944Z,99144.53
2022-11-13T07:26:56.271Z,99135.72
2022-11-13T07:29:22.605Z,99150.31
2022-11-13T07:31:48.938Z,99146.31
2022-11-13T07:34:15.310Z,99152.31
2022-11-13T07:36:41.661Z,99154.00
2022-11-13T07:39:08.081Z,99153.56
2022-11-13T07:41:34.456Z,99160.94
2022-11-13T07:44:02.564Z,99172.03
2022-11-13T07:46:30.783Z,99164.28
2022-11-13T07:48:57.148Z,99159.34
2022-11-13T07:51:23.558Z,99158.81
2022-11-13T07:53:49.872Z,99153.41
2022-11-13T07:56:20.304Z,99157.56
2022-11-13T07:58:49.363Z,99141.19
2022-11-13T08:01:15.869Z,99132.13
2022-11-13T08:03:42.255Z,99141.28
2022-11-13T08:06:08.746Z,99144.53
2022-11-13T08:08:35.167Z,99145.84
2022-11-13T08:11:05.410Z,99143.72
2022-11-13T08:13:31.810Z,99143.88
2022-11-13T08:16:01.615Z,99152.38
2022-11-13T08:18:31.320Z,99123.66
2022-11-13T08:20:57.779Z,99129.97
2022-11-13T08:23:24.094Z,99137.44
2022-11-13T08:25:53.040Z,99141.84
2022-11-13T08:28:19.371Z,99136.44
2022-11-13T08:30:45.791Z,99122.06
2022-11-13T08:33:12.206Z,99134.00
2022-11-13T08:35:38.546Z,99131.91
2022-11-13T08:38:05.354Z,99128.91
2022-11-13T08:40:31.702Z,99126.94
2022-11-13T08:42:58.578Z,99124.66
2022-11-13T08:45:24.964Z,99131.63
2022-11-13T08:47:51.287Z,99131.78
2022-11-13T08:50:17.615Z,99122.41
2022-11-13T08:52:43.980Z,99124.84
2022-11-13T08:55:10.392Z,99129.25
2022-11-13T08:57:36.723Z,99144.25
2022-11-13T09:00:03.211Z,99136.78
2022-11-13T09:02:29.557Z,99129.31
2022-11-13T09:04:55.876Z,99125.72
2022-11-13T09:07:27.107Z,99129.47
2022-11-13T09:09:53.771Z,99124.72
2022-11-13T09:12:20.089Z,99130.47
2022-11-13T09:14:46.406Z,99129.00
2022-11-13T09:17:12.875Z,99137.88
2022-11-13T09:19:39.210Z,99133.09
2022-11-13T09:22:05.609Z,99128.50
2022-11-13T09:24:31.925Z,99124.81
2022-11-13T09:26:58.277Z,99127.75
2022-11-13T09:29:25.977Z,99125.38
2022-11-13T09:31:52.481Z,99118.97
2022-11-13T09:34:18.814Z,99107.25
2022-11-13T09:36:45.160Z,99108.44
2022-11-13T09:39:11.487Z,99098.31
2022-11-13T09:41:38.691Z,99075.56
2022-11-13T09:44:06.742Z,99068.22
2022-11-13T09:46:43.554Z,99048.56
2022-11-13T09:49:14.857Z,99059.84
2022-11-13T09:51:41.189Z,99046.75
2022-11-13T09:54:12.049Z,99038.75
2022-11-13T09:56:50.561Z,99063.81
2022-11-13T09:59:31.657Z,99049.63
2022-11-13T10:02:00.739Z,99053.25
2022-11-13T10:04:31.305Z,99042.69
2022-11-13T10:07:05.175Z,99037.78
2022-11-13T10:09:51.565Z,99035.34
2022-11-13T10:12:18.032Z,99025.50
2022-11-13T10:14:45.977Z,99021.63
2022-11-13T10:17:18.933Z,99027.28
2022-11-13T10:19:45.223Z,99017.94
2022-11-13T10:22:32.239Z,99018.03
2022-11-13T10:25:00.083Z,99020.53
2022-11-13T10:27:26.413Z,99016.44
2022-11-13T10:29:53.365Z,99013.06
2022-11-13T10:32:23.141Z,99007.88
2022-11-13T10:35:01.826Z,99020.00
2022-11-13T10:37:34.415Z,99008.78
2022-11-13T10:40:00.768Z,99016.88
2022-11-13T10:42:27.771Z,99016.03
2022-11-13T10:44:57.964Z,99010.84
2022-11-13T10:47:56.784Z,99014.97
2022-11-13T10:50:21.889Z,98995.34
2022-11-13T10:52:48.770Z,98990.31
2022-11-13T10:55:31.985Z,98989.69
2022-11-13T10:57:59.078Z,98982.81
2022-11-13T11:00:32.836Z,98988.25
2022-11-13T11:02:59.154Z,98950.53
2022-11-13T11:05:25.630Z,98973.88
2022-11-13T11:07:52.424Z,98965.53
2022-11-13T11:10:57.152Z,98967.66
2022-11-13T11:13:23.854Z,98972.47
2022-11-13T11:15:59.793Z,98960.59
2022-11-13T11:18:40.826Z,98959.53
2022-11-13T11:21:08.258Z,98954.09
2022-11-13T11:23:39.968Z,98951.97
2022-11-13T11:26:08.672Z,98957.84
2022-11-13T11:28:36.312Z,98968.78
2022-11-13T11:31:09.055Z,98953.31
2022-11-13T11:33:36.745Z,98947.84
2022-11-13T11:36:22.106Z,98951.34
2022-11-13T11:38:51.025Z,98940.81
2022-11-13T11:41:17.952Z,98929.75
2022-11-13T11:43:45.778Z,98948.44
2022-11-13T11:46:12.658Z,98942.88
2022-11-13T11:48:39.021Z,98945.84
2022-11-13T11:51:05.405Z,98950.63
2022-11-13T11:53:40.194Z,98930.63
2022-11-13T11:56:16.399Z,98920.84
2022-11-13T11:58:52.248Z,98931.06
2022-11-13T12:01:37.454Z,98942.69
2022-11-13T12:04:03.747Z,98940.09
2022-11-13T12:06:34.450Z,98927.16
2022-11-13T12:09:03.234Z,98925.13
2022-11-13T12:11:31.135Z,98929.47
2022-11-13T12:14:00.465Z,98922.63
2022-11-13T12:16:30.221Z,98912.75
2022-11-13T12:19:02.616Z,98929.84
2022-11-13T12:21:47.788Z,98925.56
2022-11-13T12:24:32.946Z,98919.91
2022-11-13T12:26:59.239Z,98924.00
2022-11-13T12:29:33.165Z,98907.38
2022-11-13T12:32:17.321Z,98909.22
2022-11-13T12:34:44.811Z,98918.47
2022-11-13T12:37:22.529Z,98904.97
2022-11-13T12:40:07.328Z,98902.47
2022-11-13T12:43:09.340Z,98893.75
2022-11-13T12:45:45.746Z,98887.38
2022-11-13T12:48:18.190Z,98889.69
2022-11-13T12:50:44.513Z,98891.09
2022-11-13T12:53:11.473Z,98896.00
2022-11-13T12:55:38.543Z,98882.28
2022-11-13T12:58:09.176Z,98890.47
2022-11-13T13:00:35.563Z,98885.59
2022-11-13T13:03:08.626Z,98897.22
2022-11-13T13:05:34.933Z,98888.59
2022-11-13T13:08:10.833Z,98884.47
2022-11-13T13:10:50.285Z,98894.25
2022-11-13T13:13:23.958Z,98903.75
2022-11-13T13:16:09.205Z,98897.13
2022-11-13T13:18:36.261Z,98889.72
2022-11-13T13:21:03.161Z,98886.94
2022-11-13T13:23:39.399Z,98882.22
2022-11-13T13:26:15.120Z,98886.22
2022-11-13T13:28:42.972Z,98878.78
2022-11-13T13:31:15.377Z,98874.28
2022-11-13T13:33:41.672Z,98872.91
2022-11-13T13:36:15.707Z,98866.44
2022-11-13T13:38:50.933Z,98863.47
2022-11-13T13:41:21.587Z,98858.53
2022-11-13T13:43:54.399Z,98848.31
2022-11-13T13:46:22.201Z,98841.19
2022-11-13T13:48:49.105Z,98848.56
2022-11-13T13:51:25.436Z,98847.69
2022-11-13T13:53:51.754Z,98848.91
2022-11-13T13:56:18.812Z,98836.00
2022-11-13T13:58:45.131Z,98839.38
2022-11-13T14:01:20.018Z,98845.63
2022-11-13T14:03:46.720Z,98842.28
2022-11-13T14:06:22.798Z,98840.41
2022-11-13T14:08:49.168Z,98839.03
2022-11-13T14:11:19.990Z,98834.72
2022-11-13T14:13:46.325Z,98837.38
2022-11-13T14:16:13.961Z,98842.88
2022-11-13T14:18:40.308Z,98838.41
2022-11-13T14:21:16.541Z,98840.03
2022-11-13T14:23:47.106Z,98836.69
2022-11-13T14:26:13.546Z,98829.84
2022-11-13T14:28:59.042Z,98824.34
2022-11-13T14:31:26.844Z,98831.31
2022-11-13T14:33:53.163Z,98830.47
2022-11-13T14:36:24.909Z,98819.88
2022-11-13T14:38:52.364Z,98812.78
2022-11-13T14:41:20.834Z,98815.97
2022-11-13T14:43:54.277Z,98813.78
2022-11-13T14:46:26.701Z,98809.34
2022-11-13T14:48:54.071Z,98812.03
2022-11-13T14:51:27.680Z,98806.91
2022-11-13T14:53:58.339Z,98812.16
2022-11-13T14:56:31.609Z,98818.69
2022-11-13T14:59:06.385Z,98824.63
2022-11-13T15:01:32.736Z,98824.19
2022-11-13T15:03:59.157Z,98821.97
2022-11-13T15:06:25.978Z,98820.69
2022-11-13T15:08:55.765Z,98828.31
2022-11-13T15:11:22.752Z,98833.84
2022-11-13T15:13:50.109Z,98824.56
2022-11-13T15:16:21.580Z,98824.25
2022-11-13T15:18:58.965Z,98832.44
2022-11-13T15:21:25.318Z,98821.19
2022-11-13T15:23:51.640Z,98824.25
2022-11-13T15:26:17.979Z,98823.88
2022-11-13T15:28:44.299Z,98821.59
2022-11-13T15:31:25.395Z,98816.38
2022-11-13T15:33:51.744Z,98812.31
2022-11-13T15:36:18.082Z,98816.69
2022-11-13T15:38:44.437Z,98822.25
2022-11-13T15:41:20.436Z,98818.03
2022-11-13T15:43:47.575Z,98812.97
2022-11-13T15:46:15.586Z,98810.81
2022-11-13T15:48:41.992Z,98803.59
2022-11-13T15:51:28.546Z,98799.38
2022-11-13T15:53:56.499Z,98794.94
2022-11-13T15:56:23.254Z,98788.94
2022-11-13T15:58:49.602Z,98803.03
2022-11-13T16:01:15.964Z,98789.50
2022-11-13T16:03:42.323Z,98791.31
2022-11-13T16:06:09.386Z,98792.34
2022-11-13T16:08:35.701Z,98792.22
2022-11-13T16:11:02.254Z,98795.16
2022-11-13T16:13:29.065Z,98790.78
2022-11-13T16:15:55.865Z,98793.00
2022-11-13T16:18:29.074Z,98777.63
2022-11-13T16:20:55.396Z,98772.56
2022-11-13T16:23:22.377Z,98785.09
2022-11-13T16:25:49.342Z,98789.47
2022-11-13T16:28:16.266Z,98779.34
2022-11-13T16:30:43.217Z,98787.19
2022-11-13T16:33:10.054Z,98781.88
2022-11-13T16:35:36.397Z,98773.84
2022-11-13T16:38:02.795Z,98778.13
2022-11-13T16:40:29.263Z,98763.03
2022-11-13T16:42:55.828Z,98776.34
2022-11-13T16:45:22.202Z,98763.19
2022-11-13T16:47:50.398Z,98773.19
2022-11-13T16:50:22.172Z,98762.84
2022-11-13T16:52:50.223Z,98761.19
2022-11-13T16:55:16.815Z,98754.81
2022-11-13T16:57:43.222Z,98756.97
2022-11-13T17:00:12.083Z,98762.59
2022-11-13T17:02:38.431Z,98754.94
2022-11-13T17:05:04.969Z,98749.94
2022-11-13T17:07:31.366Z,98753.19
2022-11-13T17:10:24.072Z,98756.88
2022-11-13T17:12:44.030Z,98748.00
2022-11-13T17:15:10.486Z,98750.88
2022-11-13T17:17:36.808Z,98755.34
2022-11-13T17:20:03.176Z,98754.75
2022-11-13T17:22:29.551Z,98748.13
2022-11-13T17:24:55.871Z,98753.00
2022-11-13T17:27:22.203Z,98745.84
2022-11-13T17:29:48.570Z,98748.19
2022-11-13T17:32:14.950Z,98740.97
2022-11-13T17:34:43.307Z,98744.75
2022-11-13T17:37:09.746Z,98740.56
2022-11-13T17:39:36.063Z,98746.88
2022-11-13T17:42:02.387Z,98752.66
2022-11-13T17:44:28.709Z,98748.00
2022-11-13T17:46:55.030Z,98742.25
2022-11-13T17:49:21.366Z,98756.50
2022-11-13T17:51:47.686Z,98750.97
2022-11-13T17:54:14.055Z,98758.09
2022-11-13T17:56:42.736Z,98760.78
2022-11-13T17:59:11.007Z,98754.66
2022-11-13T18:01:37.672Z,98746.53
2022-11-13T18:04:04.403Z,98753.88
2022-11-13T18:06:30.722Z,98745.31
2022-11-13T18:08:57.124Z,98746.94
2022-11-13T18:11:24.390Z,98758.47
2022-11-13T18:13:50.904Z,98773.34
2022-11-13T18:16:21.297Z,98757.66
2022-11-13T18:18:48.320Z,98760.72
2022-11-13T18:21:23.727Z,98751.56
2022-11-13T18:23:55.546Z,98746.97
2022-11-13T18:26:21.916Z,98763.38
2022-11-13T18:28:48.258Z,98766.19
2022-11-13T18:31:15.547Z,98760.31
2022-11-13T18:33:41.943Z,98761.00
2022-11-13T18:36:08.754Z,98772.19
2022-11-13T18:38:35.232Z,98767.38
2022-11-13T18:41:08.586Z,98777.38
2022-11-13T18:43:35.108Z,98785.53
2022-11-13T18:46:06.538Z,98781.41
2022-11-13T18:48:33.722Z,98788.69
2022-11-13T18:51:00.765Z,98790.09
2022-11-13T18:53:27.512Z,98795.97
2022-11-13T18:55:58.414Z,98795.59
2022-11-13T18:58:24.987Z,98802.00
2022-11-13T19:00:51.321Z,98797.25
2022-11-13T19:03:17.819Z,98789.22
2022-11-13T19:05:47.237Z,98787.00
2022-11-13T19:08:13.644Z,98794.72
2022-11-13T19:10:40.222Z,98786.88
2022-11-13T19:13:07.281Z,98775.78
2022-11-13T19:15:37.616Z,98769.38
2022-11-13T19:18:04.646Z,98764.25
2022-11-13T19:20:30.963Z,98761.81
2022-11-13T19:22:57.345Z,98762.53
2022-11-13T19:25:23.699Z,98758.47
2022-11-13T19:27:50.098Z,98748.06
2022-11-13T19:30:16.417Z,98748.50
2022-11-13T19:32:42.827Z,98733.13
2022-11-13T19:35:09.165Z,98737.59
2022-11-13T19:37:36.249Z,98730.16
2022-11-13T19:40:02.670Z,98732.72
2022-11-13T19:42:29.068Z,98728.03
2022-11-13T19:44:55.384Z,98730.16
2022-11-13T19:47:21.800Z,98726.91
2022-11-13T19:49:48.298Z,98726.81
2022-11-13T19:52:14.631Z,98724.44
2022-11-13T19:54:41.991Z,98728.31
2022-11-13T19:57:08.330Z,98721.09
2022-11-13T19:59:34.710Z,98715.31
2022-11-13T20:02:01.166Z,98704.81
2022-11-13T20:04:27.593Z,98704.59
2022-11-13T20:06:53.996Z,98699.94
2022-11-13T20:09:20.369Z,98700.22
2022-11-13T20:11:46.784Z,98701.03
2022-11-13T20:14:13.291Z,98693.00
2022-11-13T20:16:39.609Z,98689.34
2022-11-13T20:19:05.953Z,98684.97
2022-11-13T20:21:32.307Z,98686.19
2022-11-13T20:23:59.152Z,98678.03
2022-11-13T20:26:25.531Z,98674.88
2022-11-13T20:28:51.874Z,98673.97
2022-11-13T20:31:22.210Z,98678.97
2022-11-13T20:33:52.514Z,98674.28
2022-11-13T20:36:18.936Z,98658.59
2022-11-13T20:38:48.403Z,98662.06
2022-11-13T20:41:15.286Z,98651.78
2022-11-13T20:43:41.711Z,98653.69
2022-11-13T20:46:09.542Z,98648.19
2022-11-13T20:48:36.017Z,98648.50
2022-11-13T20:51:06.140Z,98639.56
2022-11-13T20:53:32.461Z,98635.78
2022-11-13T20:55:58.772Z,98633.25
2022-11-13T20:58:25.143Z,98629.47
2022-11-13T21:00:51.462Z,98624.06
2022-11-13T21:03:17.804Z,98625.91
2022-11-13T21:05:45.213Z,98630.41
2022-11-13T21:08:11.551Z,98624.19
2022-11-13T21:10:37.870Z,98616.84
2022-11-13T21:13:04.203Z,98609.78
2022-11-13T21:15:33.346Z,98618.44
2022-11-13T21:17:59.866Z,98605.63
2022-11-13T21:20:26.189Z,98606.53
2022-11-13T21:22:52.523Z,98593.00
2022-11-13T21:25:19.732Z,98601.84
2022-11-13T21:27:46.075Z,98599.59
2022-11-13T21:30:12.435Z,98595.22
2022-11-13T21:32:39.366Z,98592.38
2022-11-13T21:35:05.745Z,98591.97
2022-11-13T21:37:33.003Z,98588.00
2022-11-13T21:39:59.312Z,98586.69
2022-11-13T21:42:25.661Z,98578.53
2022-11-13T21:44:52.003Z,98582.72
2022-11-13T21:47:18.677Z,98584.16
2022-11-13T21:49:45.066Z,98585.66
2022-11-13T21:52:11.726Z,98575.25
2022-11-13T21:54:38.060Z,98589.25
2022-11-13T21:57:04.375Z,98585.47
2022-11-13T21:59:33.729Z,98584.06
2022-11-13T22:02:00.098Z,98593.94
2022-11-13T22:04:26.575Z,98588.56
2022-11-13T22:06:53.012Z,98583.19
2022-11-13T22:09:20.317Z,98580.97
2022-11-13T22:11:46.645Z,98578.81
2022-11-13T22:14:12.989Z,98576.97
2022-11-13T22:16:40.157Z,98571.50
2022-11-13T22:19:07.149Z,98571.41
2022-11-13T22:21:33.474Z,98565.41
2022-11-13T22:24:00.040Z,98564.59
2022-11-13T22:26:26.702Z,98568.16
2022-11-13T22:28:53.272Z,98564.38
2022-11-13T22:31:23.565Z,98555.03
2022-11-13T22:33:54.384Z,98542.09
2022-11-13T22:36:25.228Z,98539.44
2022-11-13T22:38:51.682Z,98544.22
2022-11-13T22:41:22.981Z,98534.34
2022-11-13T22:43:54.700Z,98544.41
2022-11-13T22:46:21.972Z,98545.25
2022-11-13T22:48:48.994Z,98541.56
2022-11-13T22:51:16.055Z,98536.59
2022-11-13T22:53:42.854Z,98541.16
2022-11-13T22:56:12.695Z,98528.22
2022-11-13T22:58:39.034Z,98523.41
2022-11-13T23:01:06.015Z,98519.06
2022-11-13T23:03:32.474Z,98510.53
2022-11-13T23:06:00.830Z,98514.19
2022-11-13T23:08:27.464Z,98511.22
2022-11-13T23:10:54.071Z,98499.72
2022-11-13T23:13:20.425Z,98493.84
2022-11-13T23:15:46.750Z,98490.91
2022-11-13T23:18:13.100Z,98480.44
2022-11-13T23:20:42.743Z,98485.34
2022-11-13T23:23:09.140Z,98476.50
2022-11-13T23:25:35.642Z,98477.47
2022-11-13T23:28:02.276Z,98464.06
2022-11-13T23:30:28.606Z,98462.84
2022-11-13T23:32:54.932Z,98473.13
2022-11-13T23:35:21.254Z,98468.38
2022-11-13T23:37:47.646Z,98466.25
2022-11-13T23:40:13.961Z,98473.69
2022-11-13T23:42:54.812Z,98468.19
2022-11-13T23:45:21.725Z,98474.59
2022-11-13T23:47:48.049Z,98472.13
2022-11-13T23:50:14.461Z,98469.31
2022-11-13T23:52:40.873Z,98469.31
2022-11-13T23:55:07.348Z,98469.41
2022-11-13T23:57:33.652Z,98463.06
2022-11-13T23:59:59.984Z,98462.28
